Time;durP1;ratioP1;P1;durP2;ratioP2;P2;SDS_P1;SDS_P2;PMS_P1;PMS_P2;Temp;Humidity;BMP_temperature;BMP_pressure;BME280_temperature;BME280_humidity;BME280_pressure;Samples;Min_cycle;Max_cycle;Signal;HPM_P1;HPM_P2
2021/12/07 06:32:29;;;;;;;34.65;4.60;;;10.60;99.90;;;;;;6099351;23;20017;31
2021/12/07 06:34:57;;;;;;;46.38;5.43;;;10.70;99.90;;;;;;4865691;29;20199;-82
2021/12/07 06:37:24;;;;;;;42.85;5.88;;;10.70;99.90;;;;;;4885759;29;25422;-81
2021/12/07 06:39:50;;;;;;;45.40;4.75;;;10.70;99.90;;;;;;4890582;29;20478;-83
2021/12/07 06:42:18;;;;;;;46.92;5.30;;;10.80;99.90;;;;;;4889161;29;20516;-81
2021/12/07 06:44:45;;;;;;;44.97;5.63;;;10.70;99.90;;;;;;4887321;29;20049;-83
2021/12/07 06:47:12;;;;;;;41.78;5.63;;;10.80;99.90;;;;;;4879601;29;20117;-83
2021/12/07 06:49:39;;;;;;;44.97;4.78;;;10.80;99.90;;;;;;4906122;29;20044;-83
2021/12/07 06:52:06;;;;;;;41.13;5.15;;;10.90;99.90;;;;;;4890018;29;20052;-82
2021/12/07 06:54:35;;;;;;;38.92;4.30;;;10.90;99.90;;;;;;4882824;29;20112;-83
2021/12/07 06:57:03;;;;;;;49.63;4.90;;;10.90;99.90;;;;;;4889181;29;20056;-84
2021/12/07 06:59:30;;;;;;;32.72;4.63;;;11.00;99.90;;;;;;4889772;29;20116;-83
2021/12/07 07:01:57;;;;;;;47.58;5.00;;;11.00;99.90;;;;;;4894145;29;20052;-82
2021/12/07 07:04:24;;;;;;;46.58;5.65;;;11.00;99.90;;;;;;4891317;29;20096;-83
2021/12/07 07:06:51;;;;;;;47.22;5.70;;;11.00;99.90;;;;;;4889746;29;20048;-83
2021/12/07 07:09:18;;;;;;;54.60;5.88;;;11.10;99.90;;;;;;4898128;29;20051;-82
2021/12/07 07:11:45;;;;;;;45.30;6.20;;;11.10;99.90;;;;;;4885747;29;20104;-83
2021/12/07 07:14:15;;;;;;;43.30;5.20;;;11.10;99.90;;;;;;4883737;29;20461;-83
2021/12/07 07:16:42;;;;;;;57.20;6.70;;;11.10;99.90;;;;;;4890969;29;20567;-82
2021/12/07 07:19:09;;;;;;;49.45;5.30;;;11.10;99.90;;;;;;4878306;29;20061;-83
2021/12/07 07:21:36;;;;;;;43.40;5.15;;;11.10;99.90;;;;;;4893917;29;20056;-83
2021/12/07 07:24:04;;;;;;;39.78;5.07;;;11.10;99.90;;;;;;4898237;29;20525;-85
2021/12/07 07:26:30;;;;;;;42.92;4.53;;;11.10;99.90;;;;;;4898954;29;20119;-84
2021/12/07 07:28:57;;;;;;;42.58;4.68;;;11.10;99.90;;;;;;4912217;29;20100;-86
2021/12/07 07:31:24;;;;;;;33.17;5.07;;;11.10;99.90;;;;;;4907703;29;20131;-84
2021/12/07 07:33:53;;;;;;;52.00;5.30;;;11.10;99.90;;;;;;4928955;29;20065;-86
2021/12/07 07:36:20;;;;;;;29.85;4.72;;;11.20;99.90;;;;;;4944078;29;20533;-85
2021/12/07 07:38:47;;;;;;;35.58;4.22;;;11.20;99.90;;;;;;4945698;29;20113;-84
2021/12/07 07:41:14;;;;;;;30.02;3.92;;;11.20;99.90;;;;;;4945912;29;20044;-86
2021/12/07 07:43:41;;;;;;;40.75;4.80;;;11.20;99.90;;;;;;4948843;29;20056;-85
2021/12/07 07:46:08;;;;;;;39.38;4.72;;;11.20;99.90;;;;;;4928299;29;20055;-85
2021/12/07 07:48:35;;;;;;;42.47;4.88;;;11.20;99.90;;;;;;4945605;29;20404;-85
2021/12/07 07:51:03;;;;;;;47.65;6.28;;;11.30;99.90;;;;;;4945456;29;20070;-86
2021/12/07 07:53:30;;;;;;;48.25;5.82;;;11.20;99.90;;;;;;4944489;29;20143;-86
2021/12/07 07:55:57;;;;;;;31.48;4.25;;;11.30;99.90;;;;;;4948717;29;20090;-85
2021/12/07 07:58:24;;;;;;;51.13;6.22;;;11.30;99.90;;;;;;4946066;29;20047;-85
2021/12/07 08:00:51;;;;;;;38.85;5.95;;;11.30;99.90;;;;;;4928800;29;20392;-87
2021/12/07 08:03:18;;;;;;;40.67;4.95;;;11.30;99.90;;;;;;4944254;29;20047;-85
2021/12/07 08:05:46;;;;;;;38.97;4.90;;;11.30;99.90;;;;;;4945214;29;20039;-85
2021/12/07 08:08:13;;;;;;;36.63;4.80;;;11.20;99.90;;;;;;4930879;29;20074;-84
2021/12/07 08:10:40;;;;;;;50.22;5.90;;;11.20;99.90;;;;;;4935297;29;20051;-86
2021/12/07 08:13:08;;;;;;;43.22;5.43;;;11.30;99.90;;;;;;4949057;29;20058;-84
2021/12/07 08:15:42;;;;;;;49.88;5.90;;;11.30;99.90;;;;;;4949243;29;20491;-86
2021/12/07 08:18:11;;;;;;;43.28;6.32;;;11.20;99.90;;;;;;4948533;29;20051;-86
2021/12/07 08:20:39;;;;;;;41.45;5.65;;;11.20;99.90;;;;;;4931998;29;20073;-86
2021/12/07 08:23:06;;;;;;;49.75;6.40;;;11.20;99.90;;;;;;4950208;29;20118;-86
2021/12/07 08:25:43;;;;;;;45.97;5.57;;;11.20;99.90;;;;;;4951596;29;20150;-86
2021/12/07 08:28:49;;;;;;;56.22;6.22;;;11.30;99.90;;;;;;4944103;29;20114;-91
2021/12/07 08:31:23;;;;;;;54.90;7.35;;;11.30;99.90;;;;;;4899165;29;20052;-89
2021/12/07 08:34:05;;;;;;;37.13;4.82;;;11.20;99.90;;;;;;4837539;29;20046;-87
2021/12/07 08:36:47;;;;;;;41.50;6.00;;;11.20;99.90;;;;;;4845902;29;20528;-88
2021/12/07 08:39:20;;;;;;;37.85;5.13;;;11.20;99.90;;;;;;4851847;29;20056;-87
2021/12/07 08:41:54;;;;;;;52.78;5.47;;;11.20;99.90;;;;;;4934939;29;20051;-88
2021/12/07 08:44:24;;;;;;;45.35;5.00;;;11.10;99.90;;;;;;4937826;29;20099;-88
2021/12/07 08:47:23;;;;;;;39.28;5.13;;;11.10;99.90;;;;;;4939499;29;20053;-87
2021/12/07 08:50:17;;;;;;;51.83;6.03;;;11.20;99.90;;;;;;4939801;29;20054;-85
2021/12/07 08:52:46;;;;;;;42.33;5.70;;;11.10;99.90;;;;;;4937501;29;20055;-86
2021/12/07 09:00:34;;;;;;;58.38;7.10;;;11.20;99.90;;;;;;4944994;29;20039;-85
2021/12/07 09:03:02;;;;;;;54.88;6.32;;;11.10;99.90;;;;;;4948202;29;20056;-85
2021/12/07 09:05:29;;;;;;;42.97;5.63;;;11.20;99.90;;;;;;4935239;29;20094;-84
2021/12/07 09:07:56;;;;;;;49.92;5.47;;;11.20;99.90;;;;;;4935673;29;20115;-84
2021/12/07 09:10:23;;;;;;;49.88;5.50;;;11.10;99.90;;;;;;4934890;29;20563;-86
2021/12/07 09:12:50;;;;;;;58.17;6.82;;;11.20;99.90;;;;;;4943404;29;20048;-86
2021/12/07 09:15:17;;;;;;;62.00;7.22;;;11.20;99.90;;;;;;4921706;29;20515;-85
2021/12/07 09:17:44;;;;;;;53.53;7.07;;;11.20;99.90;;;;;;4936449;29;20099;-86
2021/12/07 09:20:16;;;;;;;49.90;7.80;;;11.20;99.90;;;;;;4923666;29;20872;-85
2021/12/07 09:22:47;;;;;;;41.40;5.82;;;11.20;99.90;;;;;;4954256;29;20047;-86
2021/12/07 09:25:16;;;;;;;54.17;6.63;;;11.30;99.90;;;;;;4921924;29;20048;-84
2021/12/07 09:27:43;;;;;;;55.72;6.80;;;11.30;99.90;;;;;;4934951;29;20441;-85
2021/12/07 09:30:14;;;;;;;45.92;6.97;;;11.30;99.90;;;;;;4946984;29;20052;-85
2021/12/07 09:32:41;;;;;;;40.90;5.63;;;11.30;99.90;;;;;;4944592;29;20062;-83
2021/12/07 09:35:09;;;;;;;39.13;6.57;;;11.30;99.90;;;;;;4934055;29;20084;-87
2021/12/07 09:37:37;;;;;;;47.22;5.70;;;11.30;99.90;;;;;;4919271;29;20062;-86
2021/12/07 09:40:08;;;;;;;55.05;5.85;;;11.40;99.90;;;;;;4935137;29;20464;-84
2021/12/07 09:42:35;;;;;;;36.35;5.55;;;11.40;99.90;;;;;;4952220;29;20051;-86
2021/12/07 09:45:06;;;;;;;48.88;5.50;;;11.40;99.90;;;;;;4952488;29;20058;-85
2021/12/07 09:47:33;;;;;;;38.38;5.30;;;11.40;99.90;;;;;;4951359;29;20206;-85
2021/12/07 09:50:02;;;;;;;25.35;3.95;;;11.50;99.90;;;;;;4952006;29;20143;-86
2021/12/07 09:52:29;;;;;;;;;;;11.50;99.90;;;;;;4937075;29;20051;-89
2021/12/07 09:54:56;;;;;;;22.48;3.25;;;11.50;99.90;;;;;;4937433;29;19977;-88
2021/12/07 09:57:23;;;;;;;41.00;4.45;;;11.50;99.90;;;;;;4936201;29;20105;-85
2021/12/07 09:59:51;;;;;;;27.52;3.90;;;11.50;99.90;;;;;;4918000;29;20110;-86
2021/12/07 10:02:18;;;;;;;29.23;3.55;;;11.60;99.90;;;;;;4941401;29;20047;-86
2021/12/07 10:04:46;;;;;;;25.35;3.42;;;11.60;99.90;;;;;;4936701;29;20053;-85
2021/12/07 10:07:17;;;;;;;27.70;3.35;;;11.60;99.90;;;;;;4935867;29;20051;-84
2021/12/07 10:09:48;;;;;;;27.08;3.10;;;11.70;99.90;;;;;;4920285;29;20050;-86
2021/12/07 10:12:23;;;;;;;19.50;2.60;;;11.70;99.90;;;;;;4930941;29;20058;-86
2021/12/07 10:14:50;;;;;;;24.55;3.13;;;11.70;99.90;;;;;;4913418;29;20400;-83
2021/12/07 10:17:35;;;;;;;19.67;3.20;;;11.70;99.90;;;;;;4924981;28;20055;-87
2021/12/07 10:20:38;;;;;;;27.38;3.13;;;11.70;99.90;;;;;;4928138;29;20055;-86
2021/12/07 10:23:16;;;;;;;19.38;2.95;;;11.70;99.90;;;;;;4923344;29;20099;-86
2021/12/07 10:25:55;;;;;;;15.88;2.08;;;11.70;99.90;;;;;;4949871;29;20513;-86
2021/12/07 10:28:32;;;;;;;11.77;1.77;;;11.80;99.90;;;;;;4935718;29;20044;-84
2021/12/07 10:31:23;;;;;;;19.58;2.58;;;11.80;99.90;;;;;;4951971;28;20891;-83
2021/12/07 10:34:03;;;;;;;15.80;2.10;;;11.80;99.90;;;;;;4909836;29;20659;-83
2021/12/07 10:36:52;;;;;;;17.42;2.30;;;11.90;99.90;;;;;;4935736;29;20047;-86
2021/12/07 10:39:36;;;;;;;23.65;2.45;;;11.90;99.90;;;;;;4939487;29;20054;-85
2021/12/07 10:42:07;;;;;;;20.95;2.60;;;11.90;99.90;;;;;;4929892;29;20062;-85
2021/12/07 10:44:58;;;;;;;18.27;2.33;;;11.90;99.90;;;;;;4944350;29;20109;-85
2021/12/07 10:47:25;;;;;;;17.08;2.17;;;11.90;99.90;;;;;;4907264;29;20043;-85
2021/12/07 10:50:23;;;;;;;13.63;2.42;;;12.00;99.90;;;;;;4933349;29;20047;-87
2021/12/07 10:53:12;;;;;;;20.35;2.92;;;12.00;99.90;;;;;;4928315;29;20066;-87
2021/12/07 10:55:40;;;;;;;30.10;3.80;;;12.00;99.90;;;;;;4920538;29;20293;-83
2021/12/07 10:58:13;;;;;;;19.95;3.17;;;12.10;99.90;;;;;;4937227;29;20539;-84
2021/12/07 11:00:45;;;;;;;27.63;3.72;;;12.10;99.90;;;;;;4936715;29;20051;-85
2021/12/07 11:03:25;;;;;;;36.22;3.83;;;12.10;99.90;;;;;;4935545;29;20052;-83
2021/12/07 11:05:54;;;;;;;29.10;3.40;;;12.20;99.90;;;;;;4940051;28;20240;-83
2021/12/07 11:08:33;;;;;;;31.23;4.78;;;12.30;99.90;;;;;;4938645;28;20043;-82
2021/12/07 11:11:03;;;;;;;27.63;3.80;;;12.30;99.90;;;;;;4939889;29;20061;-84
2021/12/07 11:13:35;;;;;;;35.95;3.78;;;12.40;99.90;;;;;;4934719;28;20070;-82
2021/12/07 11:16:14;;;;;;;32.05;3.97;;;12.40;99.90;;;;;;4942874;28;20054;-83
2021/12/07 11:18:49;;;;;;;25.08;3.33;;;12.50;99.90;;;;;;4924916;29;20050;-81
2021/12/07 11:21:19;;;;;;;37.15;4.53;;;12.50;99.90;;;;;;4936952;29;20055;-84
2021/12/07 11:23:53;;;;;;;44.92;5.20;;;12.30;99.90;;;;;;4941873;29;20450;-84
2021/12/07 11:31:49;;;;;;;48.95;6.80;;;11.70;99.90;;;;;;4934285;28;20051;-82
2021/12/07 11:34:22;;;;;;;43.58;6.47;;;11.50;99.90;;;;;;4946831;28;20074;-83
2021/12/07 11:36:53;;;;;;;57.60;7.70;;;11.40;99.90;;;;;;4945870;28;20401;-81
2021/12/07 11:39:31;;;;;;;64.10;7.45;;;11.30;99.90;;;;;;4939087;29;20051;-82
2021/12/07 11:42:11;;;;;;;68.50;7.43;;;11.20;99.90;;;;;;4938525;29;20055;-82
2021/12/07 11:44:50;;;;;;;71.93;7.63;;;11.20;99.90;;;;;;4944273;29;20055;-82
2021/12/07 11:47:25;;;;;;;69.78;8.00;;;11.20;99.90;;;;;;4937202;29;20055;-82
2021/12/07 11:49:52;;;;;;;60.05;8.48;;;11.10;99.90;;;;;;4940266;29;20043;-82
2021/12/07 11:52:19;;;;;;;64.57;7.40;;;11.10;99.90;;;;;;4934641;29;20055;-82
2021/12/07 11:54:47;;;;;;;58.05;8.10;;;11.00;99.90;;;;;;4945718;29;20039;-82
2021/12/07 11:57:18;;;;;;;64.05;10.57;;;11.00;99.90;;;;;;4927754;29;20047;-83
2021/12/07 11:59:47;;;;;;;58.65;8.65;;;11.00;99.90;;;;;;4933435;29;20035;-81
2021/12/07 12:02:18;;;;;;;53.33;7.50;;;11.00;99.90;;;;;;4938856;29;20386;-81
2021/12/07 12:04:47;;;;;;;65.72;8.73;;;11.10;99.90;;;;;;4930588;29;20055;-82
2021/12/07 12:07:14;;;;;;;62.60;8.73;;;11.10;99.90;;;;;;4945547;29;20062;-78
2021/12/07 12:09:53;;;;;;;58.38;8.85;;;11.10;99.90;;;;;;4935121;28;20043;-82
2021/12/07 12:12:35;;;;;;;74.70;8.95;;;11.20;99.90;;;;;;4934827;29;20047;-83
2021/12/07 12:15:36;;;;;;;72.57;8.98;;;11.30;99.90;;;;;;4937543;29;20044;-82
2021/12/07 12:18:21;;;;;;;80.68;10.13;;;11.30;99.90;;;;;;4937027;29;20047;-82
2021/12/07 12:21:06;;;;;;;72.95;10.60;;;11.40;99.90;;;;;;4939023;29;20047;-82
2021/12/07 12:23:57;;;;;;;56.95;8.88;;;11.40;99.90;;;;;;4936525;29;20050;-83
2021/12/07 12:26:27;;;;;;;69.70;9.05;;;11.40;99.90;;;;;;4935962;29;20048;-82
2021/12/07 12:28:55;;;;;;;75.25;9.38;;;11.40;99.90;;;;;;4938512;29;20491;-84
2021/12/07 12:32:01;;;;;;;64.28;9.90;;;11.30;99.90;;;;;;4937954;29;20118;-81
2021/12/07 12:34:31;;;;;;;58.92;9.85;;;11.40;99.90;;;;;;4889577;29;20426;-82
2021/12/07 12:37:00;;;;;;;63.95;8.70;;;11.30;99.90;;;;;;4890774;29;20052;-82
2021/12/07 12:39:47;;;;;;;50.20;6.75;;;11.30;99.90;;;;;;4888055;29;20044;-82
2021/12/07 12:42:36;;;;;;;52.65;7.68;;;11.20;99.90;;;;;;4889254;29;20055;-83
2021/12/07 12:45:19;;;;;;;47.67;6.80;;;11.20;99.90;;;;;;4891898;29;20498;-83
2021/12/07 12:48:05;;;;;;;49.70;8.13;;;11.20;99.90;;;;;;4887685;29;20633;-84
2021/12/07 12:50:32;;;;;;;41.15;7.03;;;11.20;99.90;;;;;;4889580;29;20060;-83
2021/12/07 12:53:05;;;;;;;52.60;6.75;;;11.20;99.90;;;;;;4890820;29;20048;-82
2021/12/07 12:55:49;;;;;;;48.72;7.35;;;11.10;99.90;;;;;;4892977;29;20045;-83
2021/12/07 12:58:35;;;;;;;45.63;8.43;;;11.10;99.90;;;;;;4886704;29;20052;-82
2021/12/07 13:01:11;;;;;;;50.38;6.93;;;11.10;99.90;;;;;;4894224;29;20529;-83
2021/12/07 13:03:43;;;;;;;56.35;8.63;;;11.10;99.90;;;;;;4890782;29;20131;-83
2021/12/07 13:06:14;;;;;;;62.75;9.07;;;11.20;99.90;;;;;;4933589;29;20039;-83
2021/12/07 13:08:57;;;;;;;48.75;6.97;;;11.20;99.90;;;;;;4925914;29;20479;-83
2021/12/07 13:11:58;;;;;;;52.22;6.60;;;11.20;99.90;;;;;;4927109;29;20401;-83
2021/12/07 13:14:25;;;;;;;58.75;7.50;;;11.20;99.90;;;;;;4941899;29;20051;-83
2021/12/07 13:17:04;;;;;;;50.05;6.65;;;11.20;99.90;;;;;;4943383;29;20142;-82
2021/12/07 13:19:32;;;;;;;53.95;7.22;;;11.20;99.90;;;;;;4942261;29;20094;-83
2021/12/07 13:22:06;;;;;;;49.30;7.10;;;11.20;99.90;;;;;;4932178;29;20055;-82
2021/12/07 13:24:40;;;;;;;45.53;5.75;;;11.20;99.90;;;;;;4942720;29;20575;-82
2021/12/07 13:27:14;;;;;;;39.00;7.07;;;11.20;99.90;;;;;;4939442;29;20047;-82
2021/12/07 13:29:47;;;;;;;43.53;5.68;;;11.20;99.90;;;;;;4942827;29;20047;-82
2021/12/07 13:32:14;;;;;;;35.97;5.78;;;11.10;99.90;;;;;;4941176;29;20048;-83
2021/12/07 13:34:41;;;;;;;43.70;5.75;;;11.10;99.90;;;;;;4943674;29;20054;-83
2021/12/07 13:37:11;;;;;;;33.05;5.72;;;11.10;99.90;;;;;;4947320;29;20168;-84
2021/12/07 13:39:47;;;;;;;38.53;6.32;;;11.00;99.90;;;;;;4928890;29;20051;-83
2021/12/07 13:42:17;;;;;;;42.53;6.15;;;11.00;99.90;;;;;;4939563;29;20127;-81
2021/12/07 13:44:47;;;;;;;34.72;7.57;;;11.00;99.90;;;;;;4923760;29;20043;-83
2021/12/07 13:47:17;;;;;;;48.00;6.35;;;10.90;99.90;;;;;;4941058;29;20067;-83
2021/12/07 13:49:57;;;;;;;41.80;6.70;;;10.90;99.90;;;;;;4940573;29;20051;-82
2021/12/07 13:52:28;;;;;;;52.15;6.63;;;10.90;99.90;;;;;;4933053;29;20107;-83
2021/12/07 13:54:58;;;;;;;43.47;6.75;;;10.90;99.90;;;;;;4933837;29;20095;-83
2021/12/07 13:57:28;;;;;;;41.03;6.38;;;10.80;99.90;;;;;;4949913;29;20047;-84
2021/12/07 14:00:12;;;;;;;36.33;7.10;;;10.70;99.90;;;;;;4947827;29;20099;-83
2021/12/07 14:02:41;;;;;;;42.55;5.38;;;10.60;99.90;;;;;;4937943;29;20054;-82
2021/12/07 14:05:15;;;;;;;48.03;6.43;;;10.40;99.90;;;;;;4943058;28;20067;-83
2021/12/07 14:07:43;;;;;;;39.72;5.78;;;10.30;99.90;;;;;;4950699;29;20043;-84
2021/12/07 14:10:15;;;;;;;44.08;6.03;;;10.30;99.90;;;;;;4934641;29;20056;-83
2021/12/07 14:12:42;;;;;;;48.47;6.20;;;10.20;99.90;;;;;;4936407;29;20575;-82
2021/12/07 14:15:13;;;;;;;37.85;5.65;;;10.20;99.90;;;;;;4940301;29;20060;-82
2021/12/07 14:17:52;;;;;;;36.38;5.30;;;10.10;99.90;;;;;;4939250;29;20058;-84
2021/12/07 14:20:49;;;;;;;39.70;5.10;;;10.10;99.90;;;;;;4951737;29;20043;-84
2021/12/07 14:23:26;;;;;;;37.63;6.43;;;10.00;99.90;;;;;;4933394;29;20574;-83
2021/12/07 14:26:00;;;;;;;46.17;4.75;;;10.00;99.90;;;;;;4935797;29;20047;-83
2021/12/07 14:28:41;;;;;;;34.38;4.75;;;10.00;99.90;;;;;;4948476;29;20043;-82
2021/12/07 14:31:27;;;;;;;37.95;4.90;;;9.90;99.90;;;;;;4950945;29;20057;-83
2021/12/07 14:33:56;;;;;;;34.97;5.18;;;9.90;99.90;;;;;;4943924;29;20094;-82
2021/12/07 14:36:35;;;;;;;29.55;4.40;;;9.90;99.90;;;;;;4939590;29;20051;-83
2021/12/07 14:39:18;;;;;;;35.45;3.80;;;9.90;99.90;;;;;;4942069;29;20584;-83
2021/12/07 14:41:53;;;;;;;16.98;3.05;;;9.90;99.90;;;;;;4941565;29;20058;-83
2021/12/07 14:44:24;;;;;;;26.90;3.60;;;9.90;99.90;;;;;;4927660;29;20047;-82
2021/12/07 14:46:52;;;;;;;30.65;3.60;;;10.00;99.90;;;;;;4941556;28;20519;-83
2021/12/07 14:49:23;;;;;;;24.15;4.07;;;10.00;99.90;;;;;;4947066;29;20605;-83
2021/12/07 14:51:50;;;;;;;;;;;10.00;99.90;;;;;;4944737;29;20059;-83
2021/12/07 14:54:19;;;;;;;20.92;3.30;;;10.00;99.90;;;;;;4943067;29;19927;-82
2021/12/07 14:56:47;;;;;;;27.90;3.90;;;10.00;99.90;;;;;;4942841;28;20051;-83
2021/12/07 14:59:18;;;;;;;27.92;4.07;;;10.00;99.90;;;;;;4926871;29;20059;-81
2021/12/07 15:01:51;;;;;;;17.85;2.80;;;9.80;99.90;;;;;;4944155;29;20089;-82
2021/12/07 15:04:20;;;;;;;18.48;2.88;;;9.80;99.90;;;;;;4940844;29;20052;-82
2021/12/07 15:07:01;;;;;;;19.50;2.65;;;9.60;99.90;;;;;;4925333;29;20093;-81
2021/12/07 15:09:33;;;;;;;20.15;2.83;;;9.50;99.90;;;;;;4922612;29;20039;-83
2021/12/07 15:12:03;;;;;;;19.10;2.63;;;9.50;99.90;;;;;;4943343;29;20482;-84
2021/12/07 15:14:30;;;;;;;16.00;2.42;;;9.40;99.90;;;;;;4936782;29;20059;-82
2021/12/07 15:17:02;;;;;;;15.23;1.80;;;9.30;99.90;;;;;;4934604;28;20476;-80
2021/12/07 15:19:30;;;;;;;20.45;3.22;;;9.20;99.90;;;;;;4943832;28;20051;-81
2021/12/07 15:21:58;;;;;;;20.20;2.47;;;9.10;99.90;;;;;;4938988;28;20626;-81
2021/12/07 15:24:28;;;;;;;17.92;3.38;;;8.90;99.90;;;;;;4934995;29;20103;-82
2021/12/07 15:26:55;;;;;;;17.45;2.75;;;8.80;99.90;;;;;;4942207;29;20043;-82
2021/12/07 15:29:26;;;;;;;15.13;2.53;;;8.60;99.90;;;;;;4941401;29;20051;-82
2021/12/07 15:32:01;;;;;;;14.27;2.35;;;8.30;99.90;;;;;;4944647;29;20058;-83
2021/12/07 15:34:30;;;;;;;12.45;2.67;;;8.20;99.90;;;;;;4939602;29;20043;-86
2021/12/07 15:37:10;;;;;;;11.40;1.75;;;8.00;99.90;;;;;;4944215;29;20071;-81
2021/12/07 15:39:51;;;;;;;17.25;2.67;;;7.90;99.90;;;;;;4924622;29;20110;-82
2021/12/07 15:42:21;;;;;;;15.23;1.75;;;7.80;99.90;;;;;;4939278;29;20459;-82
2021/12/07 15:44:58;;;;;;;16.23;2.45;;;7.70;99.90;;;;;;4936842;29;20069;-81
2021/12/07 15:47:39;;;;;;;15.43;2.15;;;7.70;99.90;;;;;;4940801;29;20432;-81
2021/12/07 15:50:11;;;;;;;9.93;1.30;;;7.70;99.90;;;;;;4939707;29;20094;-80
2021/12/07 15:52:42;;;;;;;15.38;2.20;;;7.60;99.90;;;;;;4939685;29;20044;-84
2021/12/07 15:55:26;;;;;;;10.48;1.60;;;7.60;99.90;;;;;;4938292;29;20106;-84
2021/12/07 15:58:28;;;;;;;13.40;2.20;;;7.60;99.90;;;;;;4943219;28;20126;-82
2021/12/07 16:00:58;;;;;;;12.75;1.75;;;7.60;99.90;;;;;;4888388;29;20141;-83
2021/12/07 16:03:31;;;;;;;12.77;1.67;;;7.60;99.90;;;;;;4889641;29;20052;-80
2021/12/07 16:06:02;;;;;;;21.63;2.33;;;7.60;99.90;;;;;;4888700;29;20166;-82
2021/12/07 16:08:32;;;;;;;23.70;2.95;;;7.60;99.90;;;;;;4890366;29;20060;-82
2021/12/07 16:11:06;;;;;;;13.13;1.92;;;7.60;99.90;;;;;;4888242;29;20160;-81
2021/12/07 16:13:36;;;;;;;13.90;2.25;;;7.60;99.90;;;;;;4886366;29;20421;-81
2021/12/07 16:16:06;;;;;;;11.23;1.67;;;7.60;99.90;;;;;;4887662;29;20053;-81
2021/12/07 16:18:35;;;;;;;16.02;2.00;;;7.60;99.90;;;;;;4887638;29;20460;-80
2021/12/07 16:21:05;;;;;;;18.25;2.40;;;7.60;99.90;;;;;;4888627;29;20109;-82
2021/12/07 16:23:35;;;;;;;22.20;3.42;;;7.60;99.90;;;;;;4886863;29;20144;-81
2021/12/07 16:26:03;;;;;;;26.90;3.53;;;7.50;99.90;;;;;;4887839;29;20041;-83
2021/12/07 16:28:37;;;;;;;29.00;3.45;;;7.60;99.90;;;;;;4889899;29;20045;-82
2021/12/07 16:31:05;;;;;;;19.85;2.38;;;7.50;99.90;;;;;;4874780;29;20049;-81
2021/12/07 16:33:32;;;;;;;23.67;3.53;;;7.50;99.90;;;;;;4891202;29;20052;-81
2021/12/07 16:35:59;;;;;;;35.30;5.15;;;7.50;99.90;;;;;;4903754;29;20051;-81
2021/12/07 16:38:29;;;;;;;28.08;3.60;;;7.50;99.90;;;;;;4931529;29;20130;-82
2021/12/07 16:40:57;;;;;;;25.98;3.58;;;7.50;99.90;;;;;;4945460;29;20048;-82
2021/12/07 16:43:24;;;;;;;31.02;3.35;;;7.40;99.90;;;;;;4941225;29;20085;-80
2021/12/07 16:45:51;;;;;;;37.58;4.22;;;7.50;99.90;;;;;;4944880;29;20050;-82
2021/12/07 16:48:18;;;;;;;32.05;3.88;;;7.50;99.90;;;;;;4944816;28;20113;-85
2021/12/07 16:50:46;;;;;;;29.52;4.35;;;7.50;99.90;;;;;;4943829;28;20040;-82
2021/12/07 16:53:13;;;;;;;26.85;4.05;;;7.50;99.90;;;;;;4948840;29;20676;-83
2021/12/07 16:55:40;;;;;;;25.70;4.35;;;7.50;99.90;;;;;;4948766;29;20155;-83
2021/12/07 16:58:07;;;;;;;24.48;4.05;;;7.50;99.90;;;;;;4944835;29;20043;-83
2021/12/07 17:00:37;;;;;;;23.50;3.13;;;7.50;99.90;;;;;;4943680;29;20071;-83
2021/12/07 17:03:10;;;;;;;12.80;2.22;;;7.50;99.90;;;;;;4945432;29;20052;-83
2021/12/07 17:05:38;;;;;;;20.27;2.47;;;7.50;99.90;;;;;;4946074;29;20102;-82
2021/12/07 17:08:05;;;;;;;24.83;2.63;;;7.50;99.90;;;;;;4944145;29;20047;-83
2021/12/07 17:10:32;;;;;;;17.00;1.70;;;7.50;99.90;;;;;;4932471;29;20649;-82
2021/12/07 17:12:59;;;;;;;13.98;1.98;;;7.50;99.90;;;;;;4932560;29;20099;-82
2021/12/07 17:15:26;;;;;;;9.93;1.40;;;7.50;99.90;;;;;;4933090;28;20066;-83
2021/12/07 17:17:53;;;;;;;10.52;2.35;;;7.50;99.90;;;;;;4933491;29;20095;-82
2021/12/07 17:20:21;;;;;;;13.73;1.80;;;7.50;99.90;;;;;;4945855;28;20054;-83
2021/12/07 17:22:50;;;;;;;14.70;2.10;;;7.50;99.90;;;;;;4948244;28;20121;-80
2021/12/07 17:25:19;;;;;;;31.73;4.28;;;7.60;99.90;;;;;;4947254;28;20874;-80
2021/12/07 17:27:49;;;;;;;24.25;3.33;;;7.60;99.90;;;;;;4935103;28;20056;-81
2021/12/07 17:30:19;;;;;;;24.27;3.95;;;7.60;99.90;;;;;;4929980;29;20115;-83
2021/12/07 17:32:46;;;;;;;21.77;4.00;;;7.60;99.90;;;;;;4940875;29;20062;-82
2021/12/07 17:35:14;;;;;;;26.83;3.97;;;7.60;99.90;;;;;;4942648;29;20047;-82
2021/12/07 17:37:44;;;;;;;19.47;3.03;;;7.60;99.90;;;;;;4946624;29;20051;-82
2021/12/07 17:40:14;;;;;;;26.10;4.25;;;7.50;99.90;;;;;;4940884;28;20063;-83
2021/12/07 17:42:41;;;;;;;25.63;3.05;;;7.50;99.90;;;;;;4944800;28;20051;-83
2021/12/07 17:45:10;;;;;;;22.13;2.58;;;7.50;99.90;;;;;;4943625;28;20907;-80
2021/12/07 17:47:38;;;;;;;18.30;2.75;;;7.50;99.90;;;;;;4944462;28;20308;-82
2021/12/07 17:50:07;;;;;;;19.83;3.58;;;7.50;99.90;;;;;;4927162;28;20043;-82
2021/12/07 17:52:35;;;;;;;17.15;2.60;;;7.50;99.90;;;;;;4927468;29;20039;-82
2021/12/07 17:55:05;;;;;;;21.25;2.22;;;7.50;99.90;;;;;;4943283;29;20055;-82
2021/12/07 17:57:33;;;;;;;15.98;3.08;;;7.50;99.90;;;;;;4940714;29;20475;-82
2021/12/07 17:59:59;;;;;;;20.15;4.00;;;7.60;99.90;;;;;;4924699;29;20059;-82
2021/12/07 18:02:26;;;;;;;20.90;2.95;;;7.60;99.90;;;;;;4939604;29;20047;-81
2021/12/07 18:04:53;;;;;;;23.85;3.45;;;7.70;99.90;;;;;;4942804;29;20488;-82
2021/12/07 18:07:20;;;;;;;12.15;2.60;;;7.70;99.90;;;;;;4926435;29;20047;-83
2021/12/07 18:09:48;;;;;;;19.70;3.42;;;7.70;99.90;;;;;;4940490;28;20060;-82
2021/12/07 18:12:15;;;;;;;20.70;3.05;;;7.80;99.90;;;;;;4924427;29;20054;-84
2021/12/07 18:15:02;;;;;;;21.67;3.15;;;7.70;99.90;;;;;;4943344;28;20150;-81
2021/12/07 18:17:28;;;;;;;22.40;3.70;;;7.50;99.90;;;;;;4940795;28;20113;-81
2021/12/07 18:19:55;;;;;;;33.22;3.83;;;7.40;99.90;;;;;;4944653;28;20047;-82
2021/12/07 18:22:22;;;;;;;18.25;3.00;;;7.40;99.90;;;;;;4941497;28;20051;-81
2021/12/07 18:24:49;;;;;;;25.58;3.72;;;7.20;99.90;;;;;;4941118;28;20055;-82
2021/12/07 18:27:31;;;;;;;25.50;4.03;;;7.20;99.90;;;;;;4940675;29;20542;-82
2021/12/07 18:29:58;;;;;;;26.60;3.65;;;7.10;99.90;;;;;;4925828;29;20713;-83
2021/12/07 18:32:25;;;;;;;20.77;3.50;;;7.00;99.90;;;;;;4942069;28;20043;-82
2021/12/07 18:34:52;;;;;;;32.17;4.13;;;7.00;99.90;;;;;;4920526;28;20074;-82
2021/12/07 18:37:19;;;;;;;22.30;3.55;;;7.00;99.90;;;;;;4922400;29;20110;-81
2021/12/07 18:39:46;;;;;;;32.25;4.00;;;6.90;99.90;;;;;;4937921;29;20098;-82
2021/12/07 18:42:14;;;;;;;31.63;5.43;;;6.90;99.90;;;;;;4940426;29;20102;-82
2021/12/07 18:44:41;;;;;;;25.48;4.03;;;6.90;99.90;;;;;;4929862;29;20568;-83
2021/12/07 18:47:08;;;;;;;24.90;4.15;;;6.90;99.90;;;;;;4928942;29;20066;-83
2021/12/07 18:49:35;;;;;;;23.08;2.95;;;6.90;99.90;;;;;;4937382;29;20046;-83
2021/12/07 18:52:03;;;;;;;19.48;2.90;;;6.90;99.90;;;;;;4936011;29;20505;-84
2021/12/07 18:54:32;;;;;;;19.42;2.17;;;7.00;99.90;;;;;;4929088;29;20057;-84
2021/12/07 18:57:11;;;;;;;19.83;2.60;;;7.00;99.90;;;;;;4926359;29;20070;-84
2021/12/07 18:59:41;;;;;;;22.15;2.67;;;7.10;99.90;;;;;;4940686;29;20062;-83
2021/12/07 19:02:09;;;;;;;14.27;3.03;;;7.10;99.90;;;;;;4935836;29;20051;-84
2021/12/07 19:04:36;;;;;;;21.60;3.08;;;7.20;99.90;;;;;;4932401;29;20055;-84
2021/12/07 19:07:04;;;;;;;19.90;3.00;;;7.20;99.90;;;;;;4934198;29;20047;-82
2021/12/07 19:09:31;;;;;;;14.13;2.25;;;7.20;99.90;;;;;;4937533;29;20051;-83
2021/12/07 19:12:02;;;;;;;15.13;2.33;;;7.20;99.90;;;;;;4922406;29;20058;-83
2021/12/07 19:14:34;;;;;;;33.65;3.13;;;7.20;99.90;;;;;;4938203;29;20122;-82
2021/12/07 19:17:02;;;;;;;18.35;2.50;;;7.20;99.90;;;;;;4922640;29;20736;-82
2021/12/07 19:19:32;;;;;;;19.75;2.67;;;7.30;99.90;;;;;;4940264;28;20054;-82
2021/12/07 19:21:59;;;;;;;15.13;2.00;;;7.30;99.90;;;;;;4940151;28;20193;-82
2021/12/07 19:24:26;;;;;;;18.73;2.50;;;7.30;99.90;;;;;;4941914;29;20478;-83
2021/12/07 19:26:54;;;;;;;17.65;2.10;;;7.30;99.90;;;;;;4941210;29;20051;-83
2021/12/07 19:29:22;;;;;;;12.35;2.53;;;7.40;99.90;;;;;;4944713;29;20077;-85
2021/12/07 19:31:49;;;;;;;21.35;2.55;;;7.40;99.90;;;;;;4926496;29;20062;-84
2021/12/07 19:34:16;;;;;;;16.50;3.40;;;7.40;99.90;;;;;;4944613;29;20051;-85
2021/12/07 19:36:43;;;;;;;22.95;3.28;;;7.40;99.90;;;;;;4940946;28;20048;-84
2021/12/07 19:39:10;;;;;;;17.67;3.10;;;7.50;99.90;;;;;;4941529;29;20079;-83
2021/12/07 19:41:38;;;;;;;24.58;3.17;;;7.40;99.90;;;;;;4937818;29;20052;-85
2021/12/07 19:44:06;;;;;;;32.92;4.38;;;7.40;99.90;;;;;;4922026;29;20039;-84
2021/12/07 19:46:33;;;;;;;23.30;3.50;;;7.40;99.90;;;;;;4940073;29;20047;-85